sensor_id;sensor_type;location;lat;lon;timestamp;P1;durP1;ratioP1;P2;durP2;ratioP2
18711;SDS011;9485;49.386;8.674;2023-01-13T00:01:42;2.97;;;0.90;;
18711;SDS011;9485;49.386;8.674;2023-01-13T00:07:03;1.10;;;0.70;;
18711;SDS011;9485;49.386;8.674;2023-01-13T00:12:24;1.43;;;0.80;;
18711;SDS011;9485;49.386;8.674;2023-01-13T00:17:45;0.60;;;0.60;;
18711;SDS011;9485;49.386;8.674;2023-01-13T00:23:06;2.77;;;0.80;;
18711;SDS011;9485;49.386;8.674;2023-01-13T00:28:27;0.80;;;0.80;;
18711;SDS011;9485;49.386;8.674;2023-01-13T00:33:49;0.80;;;0.70;;
18711;SDS011;9485;49.386;8.674;2023-01-13T00:39:10;2.83;;;1.00;;
18711;SDS011;9485;49.386;8.674;2023-01-13T00:44:31;2.00;;;0.90;;
18711;SDS011;9485;49.386;8.674;2023-01-13T00:49:53;0.87;;;0.70;;
18711;SDS011;9485;49.386;8.674;2023-01-13T00:55:14;1.37;;;1.00;;
18711;SDS011;9485;49.386;8.674;2023-01-13T01:00:34;1.00;;;0.80;;
18711;SDS011;9485;49.386;8.674;2023-01-13T01:06:01;0.93;;;0.73;;
18711;SDS011;9485;49.386;8.674;2023-01-13T01:11:50;0.70;;;0.63;;
18711;SDS011;9485;49.386;8.674;2023-01-13T01:17:11;2.87;;;1.00;;
18711;SDS011;9485;49.386;8.674;2023-01-13T01:22:33;1.53;;;0.70;;
18711;SDS011;9485;49.386;8.674;2023-01-13T01:27:53;0.87;;;0.70;;
18711;SDS011;9485;49.386;8.674;2023-01-13T01:33:14;1.43;;;0.70;;
18711;SDS011;9485;49.386;8.674;2023-01-13T01:38:36;0.87;;;0.73;;
18711;SDS011;9485;49.386;8.674;2023-01-13T01:43:57;0.90;;;0.80;;
18711;SDS011;9485;49.386;8.674;2023-01-13T01:49:25;0.90;;;0.80;;
18711;SDS011;9485;49.386;8.674;2023-01-13T01:54:53;0.80;;;0.70;;
18711;SDS011;9485;49.386;8.674;2023-01-13T02:00:18;1.03;;;0.80;;
18711;SDS011;9485;49.386;8.674;2023-01-13T02:05:39;1.67;;;0.70;;
18711;SDS011;9485;49.386;8.674;2023-01-13T02:11:01;2.20;;;1.07;;
18711;SDS011;9485;49.386;8.674;2023-01-13T02:16:22;2.23;;;0.90;;
18711;SDS011;9485;49.386;8.674;2023-01-13T02:21:49;1.07;;;0.83;;
18711;SDS011;9485;49.386;8.674;2023-01-13T02:27:46;1.50;;;0.70;;
18711;SDS011;9485;49.386;8.674;2023-01-13T02:33:35;1.10;;;0.83;;
18711;SDS011;9485;49.386;8.674;2023-01-13T02:39:10;0.80;;;0.70;;
18711;SDS011;9485;49.386;8.674;2023-01-13T02:44:41;1.93;;;1.10;;
18711;SDS011;9485;49.386;8.674;2023-01-13T02:50:10;1.60;;;0.73;;
18711;SDS011;9485;49.386;8.674;2023-01-13T02:55:36;0.90;;;0.80;;
18711;SDS011;9485;49.386;8.674;2023-01-13T03:01:01;0.83;;;0.83;;
18711;SDS011;9485;49.386;8.674;2023-01-13T03:06:31;1.07;;;0.80;;
18711;SDS011;9485;49.386;8.674;2023-01-13T03:12:09;2.37;;;0.80;;
18711;SDS011;9485;49.386;8.674;2023-01-13T03:17:41;2.23;;;0.80;;
18711;SDS011;9485;49.386;8.674;2023-01-13T03:23:13;0.93;;;0.87;;
18711;SDS011;9485;49.386;8.674;2023-01-13T03:28:41;1.00;;;0.80;;
18711;SDS011;9485;49.386;8.674;2023-01-13T03:34:08;0.77;;;0.73;;
18711;SDS011;9485;49.386;8.674;2023-01-13T03:39:38;0.70;;;0.70;;
18711;SDS011;9485;49.386;8.674;2023-01-13T03:45:09;0.70;;;0.70;;
18711;SDS011;9485;49.386;8.674;2023-01-13T03:50:37;1.37;;;0.60;;
18711;SDS011;9485;49.386;8.674;2023-01-13T03:56:08;0.87;;;0.60;;
18711;SDS011;9485;49.386;8.674;2023-01-13T04:01:40;0.73;;;0.60;;
18711;SDS011;9485;49.386;8.674;2023-01-13T04:07:09;0.80;;;0.80;;
18711;SDS011;9485;49.386;8.674;2023-01-13T04:12:43;1.27;;;0.80;;
18711;SDS011;9485;49.386;8.674;2023-01-13T04:18:23;0.63;;;0.63;;
18711;SDS011;9485;49.386;8.674;2023-01-13T04:23:45;0.70;;;0.67;;
18711;SDS011;9485;49.386;8.674;2023-01-13T04:29:10;1.60;;;0.83;;
18711;SDS011;9485;49.386;8.674;2023-01-13T04:34:30;0.83;;;0.80;;
18711;SDS011;9485;49.386;8.674;2023-01-13T04:39:51;1.77;;;0.70;;
18711;SDS011;9485;49.386;8.674;2023-01-13T04:45:13;1.03;;;0.80;;
18711;SDS011;9485;49.386;8.674;2023-01-13T04:50:34;1.27;;;0.60;;
18711;SDS011;9485;49.386;8.674;2023-01-13T04:55:55;0.87;;;0.60;;
18711;SDS011;9485;49.386;8.674;2023-01-13T05:01:17;2.07;;;0.70;;
18711;SDS011;9485;49.386;8.674;2023-01-13T05:06:38;1.27;;;0.80;;
18711;SDS011;9485;49.386;8.674;2023-01-13T05:11:59;0.70;;;0.60;;
18711;SDS011;9485;49.386;8.674;2023-01-13T05:17:38;0.60;;;0.60;;
18711;SDS011;9485;49.386;8.674;2023-01-13T05:23:00;1.00;;;0.60;;
18711;SDS011;9485;49.386;8.674;2023-01-13T05:28:38;1.10;;;0.80;;
18711;SDS011;9485;49.386;8.674;2023-01-13T05:34:00;0.70;;;0.50;;
18711;SDS011;9485;49.386;8.674;2023-01-13T05:39:21;0.73;;;0.73;;
18711;SDS011;9485;49.386;8.674;2023-01-13T05:44:41;1.13;;;0.50;;
18711;SDS011;9485;49.386;8.674;2023-01-13T05:50:03;1.67;;;0.70;;
18711;SDS011;9485;49.386;8.674;2023-01-13T05:55:25;1.00;;;0.70;;
18711;SDS011;9485;49.386;8.674;2023-01-13T06:00:46;0.60;;;0.60;;
18711;SDS011;9485;49.386;8.674;2023-01-13T06:06:08;0.93;;;0.50;;
18711;SDS011;9485;49.386;8.674;2023-01-13T06:11:29;1.47;;;1.13;;
18711;SDS011;9485;49.386;8.674;2023-01-13T06:16:50;0.50;;;0.50;;
18711;SDS011;9485;49.386;8.674;2023-01-13T06:22:12;1.10;;;0.70;;
18711;SDS011;9485;49.386;8.674;2023-01-13T06:27:36;0.80;;;0.80;;
18711;SDS011;9485;49.386;8.674;2023-01-13T06:32:58;1.30;;;0.90;;
18711;SDS011;9485;49.386;8.674;2023-01-13T06:38:25;1.00;;;0.70;;
18711;SDS011;9485;49.386;8.674;2023-01-13T06:43:51;1.67;;;0.80;;
18711;SDS011;9485;49.386;8.674;2023-01-13T06:49:11;1.23;;;0.83;;
18711;SDS011;9485;49.386;8.674;2023-01-13T06:54:33;1.77;;;0.90;;
18711;SDS011;9485;49.386;8.674;2023-01-13T06:59:54;1.83;;;0.90;;
18711;SDS011;9485;49.386;8.674;2023-01-13T07:05:14;0.80;;;0.60;;
18711;SDS011;9485;49.386;8.674;2023-01-13T07:10:39;1.47;;;0.70;;
18711;SDS011;9485;49.386;8.674;2023-01-13T07:16:02;0.67;;;0.67;;
18711;SDS011;9485;49.386;8.674;2023-01-13T07:21:25;1.33;;;0.80;;
18711;SDS011;9485;49.386;8.674;2023-01-13T07:26:48;2.53;;;0.80;;
18711;SDS011;9485;49.386;8.674;2023-01-13T07:32:10;1.33;;;0.50;;
18711;SDS011;9485;49.386;8.674;2023-01-13T07:37:32;0.70;;;0.70;;
18711;SDS011;9485;49.386;8.674;2023-01-13T07:42:56;0.70;;;0.70;;
18711;SDS011;9485;49.386;8.674;2023-01-13T07:48:39;1.07;;;0.60;;
18711;SDS011;9485;49.386;8.674;2023-01-13T07:54:00;1.23;;;1.00;;
18711;SDS011;9485;49.386;8.674;2023-01-13T07:59:23;1.20;;;1.10;;
18711;SDS011;9485;49.386;8.674;2023-01-13T08:04:44;1.10;;;1.00;;
18711;SDS011;9485;49.386;8.674;2023-01-13T08:10:04;0.80;;;0.80;;
18711;SDS011;9485;49.386;8.674;2023-01-13T08:15:27;1.37;;;1.00;;
18711;SDS011;9485;49.386;8.674;2023-01-13T08:20:50;0.77;;;0.73;;
18711;SDS011;9485;49.386;8.674;2023-01-13T08:26:12;0.60;;;0.50;;
18711;SDS011;9485;49.386;8.674;2023-01-13T08:31:38;0.70;;;0.70;;
18711;SDS011;9485;49.386;8.674;2023-01-13T08:36:58;2.63;;;1.20;;
18711;SDS011;9485;49.386;8.674;2023-01-13T08:42:19;1.57;;;1.03;;
18711;SDS011;9485;49.386;8.674;2023-01-13T08:47:41;1.70;;;0.80;;
18711;SDS011;9485;49.386;8.674;2023-01-13T08:53:02;1.47;;;1.07;;
18711;SDS011;9485;49.386;8.674;2023-01-13T08:58:22;2.10;;;1.57;;
18711;SDS011;9485;49.386;8.674;2023-01-13T09:03:44;1.53;;;1.30;;
18711;SDS011;9485;49.386;8.674;2023-01-13T09:09:04;1.00;;;0.90;;
18711;SDS011;9485;49.386;8.674;2023-01-13T09:14:26;0.63;;;0.63;;
18711;SDS011;9485;49.386;8.674;2023-01-13T09:19:50;2.57;;;1.90;;
18711;SDS011;9485;49.386;8.674;2023-01-13T09:25:11;4.67;;;2.10;;
18711;SDS011;9485;49.386;8.674;2023-01-13T09:30:31;4.20;;;1.53;;
18711;SDS011;9485;49.386;8.674;2023-01-13T09:35:57;2.33;;;1.40;;
18711;SDS011;9485;49.386;8.674;2023-01-13T09:41:19;3.90;;;1.90;;
18711;SDS011;9485;49.386;8.674;2023-01-13T09:47:01;3.83;;;2.20;;
18711;SDS011;9485;49.386;8.674;2023-01-13T09:52:32;3.83;;;2.57;;
18711;SDS011;9485;49.386;8.674;2023-01-13T09:57:53;2.97;;;2.23;;
18711;SDS011;9485;49.386;8.674;2023-01-13T10:03:24;6.20;;;3.10;;
18711;SDS011;9485;49.386;8.674;2023-01-13T10:08:49;5.23;;;2.50;;
18711;SDS011;9485;49.386;8.674;2023-01-13T10:14:11;2.97;;;2.20;;
18711;SDS011;9485;49.386;8.674;2023-01-13T10:19:38;4.43;;;2.23;;
18711;SDS011;9485;49.386;8.674;2023-01-13T10:25:14;3.03;;;1.97;;
18711;SDS011;9485;49.386;8.674;2023-01-13T10:30:59;3.13;;;1.77;;
18711;SDS011;9485;49.386;8.674;2023-01-13T10:36:20;2.67;;;1.47;;
18711;SDS011;9485;49.386;8.674;2023-01-13T10:41:42;3.37;;;1.77;;
18711;SDS011;9485;49.386;8.674;2023-01-13T10:47:04;4.03;;;1.70;;
18711;SDS011;9485;49.386;8.674;2023-01-13T10:52:56;1.90;;;1.10;;
18711;SDS011;9485;49.386;8.674;2023-01-13T10:58:23;3.37;;;0.97;;
18711;SDS011;9485;49.386;8.674;2023-01-13T11:03:44;1.80;;;1.17;;
18711;SDS011;9485;49.386;8.674;2023-01-13T11:09:08;2.10;;;1.30;;
18711;SDS011;9485;49.386;8.674;2023-01-13T11:14:41;1.40;;;0.90;;
18711;SDS011;9485;49.386;8.674;2023-01-13T11:20:11;2.53;;;1.13;;
18711;SDS011;9485;49.386;8.674;2023-01-13T11:25:38;1.87;;;0.97;;
18711;SDS011;9485;49.386;8.674;2023-01-13T11:31:06;1.83;;;0.97;;
18711;SDS011;9485;49.386;8.674;2023-01-13T11:36:37;3.70;;;0.93;;
18711;SDS011;9485;49.386;8.674;2023-01-13T11:42:09;5.07;;;1.50;;
18711;SDS011;9485;49.386;8.674;2023-01-13T11:47:43;4.27;;;1.47;;
18711;SDS011;9485;49.386;8.674;2023-01-13T11:53:17;4.03;;;1.40;;
18711;SDS011;9485;49.386;8.674;2023-01-13T11:59:07;2.70;;;1.00;;
18711;SDS011;9485;49.386;8.674;2023-01-13T12:04:54;1.50;;;1.07;;
18711;SDS011;9485;49.386;8.674;2023-01-13T12:10:32;2.77;;;1.23;;
18711;SDS011;9485;49.386;8.674;2023-01-13T12:16:10;3.93;;;1.00;;
18711;SDS011;9485;49.386;8.674;2023-01-13T12:21:44;2.37;;;1.13;;
18711;SDS011;9485;49.386;8.674;2023-01-13T12:27:21;1.93;;;1.40;;
18711;SDS011;9485;49.386;8.674;2023-01-13T12:32:56;2.03;;;1.00;;
18711;SDS011;9485;49.386;8.674;2023-01-13T12:38:28;4.93;;;1.50;;
18711;SDS011;9485;49.386;8.674;2023-01-13T12:43:55;5.27;;;1.30;;
18711;SDS011;9485;49.386;8.674;2023-01-13T12:49:34;2.20;;;1.30;;
18711;SDS011;9485;49.386;8.674;2023-01-13T13:00:57;2.90;;;1.20;;
18711;SDS011;9485;49.386;8.674;2023-01-13T13:06:29;1.93;;;0.90;;
18711;SDS011;9485;49.386;8.674;2023-01-13T13:11:52;1.67;;;0.90;;
18711;SDS011;9485;49.386;8.674;2023-01-13T13:17:41;2.93;;;0.90;;
18711;SDS011;9485;49.386;8.674;2023-01-13T13:23:24;2.53;;;0.80;;
18711;SDS011;9485;49.386;8.674;2023-01-13T13:29:03;4.63;;;1.10;;
18711;SDS011;9485;49.386;8.674;2023-01-13T13:34:44;2.20;;;1.10;;
18711;SDS011;9485;49.386;8.674;2023-01-13T13:40:15;4.10;;;1.10;;
18711;SDS011;9485;49.386;8.674;2023-01-13T13:45:57;2.17;;;1.10;;
18711;SDS011;9485;49.386;8.674;2023-01-13T13:51:35;2.93;;;1.00;;
18711;SDS011;9485;49.386;8.674;2023-01-13T13:57:02;3.47;;;1.10;;
18711;SDS011;9485;49.386;8.674;2023-01-13T14:02:26;2.53;;;1.13;;
18711;SDS011;9485;49.386;8.674;2023-01-13T14:07:50;3.17;;;1.10;;
18711;SDS011;9485;49.386;8.674;2023-01-13T14:13:19;5.90;;;1.30;;
18711;SDS011;9485;49.386;8.674;2023-01-13T14:18:44;3.77;;;1.20;;
18711;SDS011;9485;49.386;8.674;2023-01-13T14:24:12;5.30;;;1.30;;
18711;SDS011;9485;49.386;8.674;2023-01-13T14:29:35;5.03;;;1.23;;
18711;SDS011;9485;49.386;8.674;2023-01-13T14:34:58;2.07;;;1.00;;
18711;SDS011;9485;49.386;8.674;2023-01-13T14:40:40;3.63;;;0.90;;
18711;SDS011;9485;49.386;8.674;2023-01-13T14:46:05;1.13;;;0.97;;
18711;SDS011;9485;49.386;8.674;2023-01-13T14:51:27;1.83;;;0.87;;
18711;SDS011;9485;49.386;8.674;2023-01-13T14:56:50;3.13;;;1.00;;
18711;SDS011;9485;49.386;8.674;2023-01-13T15:08:03;5.33;;;0.93;;
18711;SDS011;9485;49.386;8.674;2023-01-13T15:13:41;3.77;;;1.43;;
18711;SDS011;9485;49.386;8.674;2023-01-13T15:19:07;4.57;;;1.60;;
18711;SDS011;9485;49.386;8.674;2023-01-13T15:24:30;4.77;;;1.30;;
18711;SDS011;9485;49.386;8.674;2023-01-13T15:29:51;6.63;;;1.63;;
18711;SDS011;9485;49.386;8.674;2023-01-13T15:35:12;6.33;;;2.13;;
18711;SDS011;9485;49.386;8.674;2023-01-13T15:40:35;4.07;;;1.40;;
18711;SDS011;9485;49.386;8.674;2023-01-13T15:45:56;4.90;;;1.67;;
18711;SDS011;9485;49.386;8.674;2023-01-13T15:51:34;4.93;;;1.60;;
18711;SDS011;9485;49.386;8.674;2023-01-13T15:56:58;5.33;;;2.20;;
18711;SDS011;9485;49.386;8.674;2023-01-13T16:02:18;3.93;;;1.50;;
18711;SDS011;9485;49.386;8.674;2023-01-13T16:07:40;6.80;;;2.17;;
18711;SDS011;9485;49.386;8.674;2023-01-13T16:13:02;4.20;;;1.87;;
18711;SDS011;9485;49.386;8.674;2023-01-13T16:18:23;2.80;;;1.47;;
18711;SDS011;9485;49.386;8.674;2023-01-13T16:23:43;4.33;;;1.70;;
18711;SDS011;9485;49.386;8.674;2023-01-13T16:29:05;4.33;;;1.43;;
18711;SDS011;9485;49.386;8.674;2023-01-13T16:34:27;3.47;;;1.47;;
18711;SDS011;9485;49.386;8.674;2023-01-13T16:39:48;3.07;;;1.70;;
18711;SDS011;9485;49.386;8.674;2023-01-13T16:45:11;3.57;;;1.30;;
18711;SDS011;9485;49.386;8.674;2023-01-13T16:50:33;4.60;;;1.50;;
18711;SDS011;9485;49.386;8.674;2023-01-13T16:55:57;2.77;;;1.23;;
18711;SDS011;9485;49.386;8.674;2023-01-13T17:01:20;1.80;;;1.27;;
18711;SDS011;9485;49.386;8.674;2023-01-13T17:06:46;3.77;;;1.63;;
18711;SDS011;9485;49.386;8.674;2023-01-13T17:12:13;4.37;;;1.70;;
18711;SDS011;9485;49.386;8.674;2023-01-13T17:17:35;3.93;;;1.50;;
18711;SDS011;9485;49.386;8.674;2023-01-13T17:22:55;4.63;;;1.60;;
18711;SDS011;9485;49.386;8.674;2023-01-13T17:28:16;5.03;;;1.60;;
18711;SDS011;9485;49.386;8.674;2023-01-13T17:33:38;4.97;;;1.63;;
18711;SDS011;9485;49.386;8.674;2023-01-13T17:38:58;3.37;;;1.40;;
18711;SDS011;9485;49.386;8.674;2023-01-13T17:44:19;5.07;;;1.47;;
18711;SDS011;9485;49.386;8.674;2023-01-13T17:49:42;6.47;;;1.60;;
18711;SDS011;9485;49.386;8.674;2023-01-13T17:55:03;3.77;;;1.40;;
18711;SDS011;9485;49.386;8.674;2023-01-13T18:00:24;2.47;;;1.50;;
18711;SDS011;9485;49.386;8.674;2023-01-13T18:05:49;5.30;;;1.63;;
18711;SDS011;9485;49.386;8.674;2023-01-13T18:11:09;2.83;;;1.80;;
18711;SDS011;9485;49.386;8.674;2023-01-13T18:16:34;4.27;;;2.30;;
18711;SDS011;9485;49.386;8.674;2023-01-13T18:21:57;17.13;;;3.30;;
18711;SDS011;9485;49.386;8.674;2023-01-13T18:27:35;8.47;;;3.70;;
18711;SDS011;9485;49.386;8.674;2023-01-13T18:32:58;5.00;;;1.83;;
18711;SDS011;9485;49.386;8.674;2023-01-13T18:38:22;6.27;;;2.27;;
18711;SDS011;9485;49.386;8.674;2023-01-13T18:43:42;3.07;;;1.67;;
18711;SDS011;9485;49.386;8.674;2023-01-13T18:49:03;4.03;;;1.60;;
18711;SDS011;9485;49.386;8.674;2023-01-13T18:54:25;5.77;;;2.90;;
18711;SDS011;9485;49.386;8.674;2023-01-13T18:59:45;4.07;;;1.90;;
18711;SDS011;9485;49.386;8.674;2023-01-13T19:05:06;2.63;;;1.33;;
18711;SDS011;9485;49.386;8.674;2023-01-13T19:10:29;4.90;;;1.60;;
18711;SDS011;9485;49.386;8.674;2023-01-13T19:15:50;5.17;;;2.10;;
18711;SDS011;9485;49.386;8.674;2023-01-13T19:21:10;5.67;;;2.20;;
18711;SDS011;9485;49.386;8.674;2023-01-13T19:26:32;1.83;;;1.60;;
18711;SDS011;9485;49.386;8.674;2023-01-13T19:31:53;5.07;;;1.80;;
18711;SDS011;9485;49.386;8.674;2023-01-13T19:37:13;2.73;;;1.50;;
18711;SDS011;9485;49.386;8.674;2023-01-13T19:42:35;4.17;;;1.80;;
18711;SDS011;9485;49.386;8.674;2023-01-13T19:48:28;3.13;;;1.37;;
18711;SDS011;9485;49.386;8.674;2023-01-13T19:53:49;3.70;;;1.60;;
18711;SDS011;9485;49.386;8.674;2023-01-13T19:59:11;4.40;;;2.63;;
18711;SDS011;9485;49.386;8.674;2023-01-13T20:04:31;4.30;;;1.73;;
18711;SDS011;9485;49.386;8.674;2023-01-13T20:09:55;6.20;;;1.57;;
18711;SDS011;9485;49.386;8.674;2023-01-13T20:15:17;6.13;;;1.50;;
18711;SDS011;9485;49.386;8.674;2023-01-13T20:20:38;2.63;;;1.50;;
18711;SDS011;9485;49.386;8.674;2023-01-13T20:25:59;5.57;;;1.60;;
18711;SDS011;9485;49.386;8.674;2023-01-13T20:31:21;2.83;;;1.50;;
18711;SDS011;9485;49.386;8.674;2023-01-13T20:36:41;3.93;;;1.63;;
18711;SDS011;9485;49.386;8.674;2023-01-13T20:42:02;4.93;;;1.60;;
18711;SDS011;9485;49.386;8.674;2023-01-13T20:47:43;4.63;;;1.67;;
18711;SDS011;9485;49.386;8.674;2023-01-13T20:53:04;5.67;;;1.63;;
18711;SDS011;9485;49.386;8.674;2023-01-13T20:58:25;4.70;;;2.20;;
18711;SDS011;9485;49.386;8.674;2023-01-13T21:03:46;4.40;;;2.00;;
18711;SDS011;9485;49.386;8.674;2023-01-13T21:09:07;4.13;;;2.10;;
18711;SDS011;9485;49.386;8.674;2023-01-13T21:14:28;2.10;;;1.63;;
18711;SDS011;9485;49.386;8.674;2023-01-13T21:20:09;4.43;;;1.80;;
18711;SDS011;9485;49.386;8.674;2023-01-13T21:25:32;4.67;;;2.10;;
18711;SDS011;9485;49.386;8.674;2023-01-13T21:30:54;4.77;;;2.03;;
18711;SDS011;9485;49.386;8.674;2023-01-13T21:36:22;5.50;;;2.00;;
18711;SDS011;9485;49.386;8.674;2023-01-13T21:41:42;4.00;;;1.90;;
18711;SDS011;9485;49.386;8.674;2023-01-13T21:47:20;4.57;;;1.80;;
18711;SDS011;9485;49.386;8.674;2023-01-13T21:53:00;3.60;;;2.00;;
18711;SDS011;9485;49.386;8.674;2023-01-13T21:58:21;4.10;;;1.87;;
18711;SDS011;9485;49.386;8.674;2023-01-13T22:03:42;3.10;;;1.90;;
18711;SDS011;9485;49.386;8.674;2023-01-13T22:09:22;4.87;;;1.97;;
18711;SDS011;9485;49.386;8.674;2023-01-13T22:14:43;3.07;;;2.10;;
18711;SDS011;9485;49.386;8.674;2023-01-13T22:20:04;6.50;;;2.30;;
18711;SDS011;9485;49.386;8.674;2023-01-13T22:25:29;7.27;;;2.83;;
18711;SDS011;9485;49.386;8.674;2023-01-13T22:30:49;4.17;;;1.90;;
18711;SDS011;9485;49.386;8.674;2023-01-13T22:36:11;5.57;;;2.10;;
18711;SDS011;9485;49.386;8.674;2023-01-13T22:41:34;2.77;;;1.80;;
18711;SDS011;9485;49.386;8.674;2023-01-13T22:46:54;4.57;;;2.07;;
18711;SDS011;9485;49.386;8.674;2023-01-13T22:52:15;5.17;;;2.10;;
18711;SDS011;9485;49.386;8.674;2023-01-13T22:57:37;7.00;;;2.20;;
18711;SDS011;9485;49.386;8.674;2023-01-13T23:02:58;5.63;;;2.67;;
18711;SDS011;9485;49.386;8.674;2023-01-13T23:08:18;6.67;;;2.90;;
18711;SDS011;9485;49.386;8.674;2023-01-13T23:13:41;9.33;;;3.10;;
18711;SDS011;9485;49.386;8.674;2023-01-13T23:19:02;8.10;;;2.93;;
18711;SDS011;9485;49.386;8.674;2023-01-13T23:24:24;8.50;;;2.43;;
18711;SDS011;9485;49.386;8.674;2023-01-13T23:29:48;3.73;;;2.20;;
18711;SDS011;9485;49.386;8.674;2023-01-13T23:35:08;4.93;;;1.97;;
18711;SDS011;9485;49.386;8.674;2023-01-13T23:40:29;6.33;;;2.13;;
18711;SDS011;9485;49.386;8.674;2023-01-13T23:45:59;5.07;;;2.33;;
18711;SDS011;9485;49.386;8.674;2023-01-13T23:51:21;5.93;;;2.00;;
18711;SDS011;9485;49.386;8.674;2023-01-13T23:56:43;5.87;;;1.53;;
